sensor_id;sensor_type;location;lat;lon;timestamp;pressure;altitude;pressure_sealevel;temperature;humidity
72558;BME280;60583;50.094;8.748;2023-04-04T00:00:53;101707.94;;;2.54;57.40
72558;BME280;60583;50.094;8.748;2023-04-04T00:03:20;101706.56;;;2.62;57.19
72558;BME280;60583;50.094;8.748;2023-04-04T00:05:45;101714.25;;;2.76;57.07
72558;BME280;60583;50.094;8.748;2023-04-04T00:08:11;101680.91;;;2.52;57.14
72558;BME280;60583;50.094;8.748;2023-04-04T00:10:36;101711.75;;;2.85;57.14
72558;BME280;60583;50.094;8.748;2023-04-04T00:13:01;101708.66;;;2.91;57.10
72558;BME280;60583;50.094;8.748;2023-04-04T00:15:27;101673.16;;;2.62;57.05
72558;BME280;60583;50.094;8.748;2023-04-04T00:17:53;101703.84;;;2.74;57.26
72558;BME280;60583;50.094;8.748;2023-04-04T00:20:18;101705.84;;;2.71;57.25
72558;BME280;60583;50.094;8.748;2023-04-04T00:22:44;101695.78;;;2.65;57.76
72558;BME280;60583;50.094;8.748;2023-04-04T00:25:09;101666.31;;;2.48;57.37
72558;BME280;60583;50.094;8.748;2023-04-04T00:27:35;101685.72;;;2.58;57.75
72558;BME280;60583;50.094;8.748;2023-04-04T00:30:00;101669.88;;;2.36;58.60
72558;BME280;60583;50.094;8.748;2023-04-04T00:32:26;101698.97;;;2.57;59.05
72558;BME280;60583;50.094;8.748;2023-04-04T00:34:52;101665.09;;;2.41;57.85
72558;BME280;60583;50.094;8.748;2023-04-04T00:37:18;101687.25;;;2.50;58.08
72558;BME280;60583;50.094;8.748;2023-04-04T00:39:43;101700.91;;;2.55;58.10
72558;BME280;60583;50.094;8.748;2023-04-04T00:42:09;101671.53;;;2.37;58.42
72558;BME280;60583;50.094;8.748;2023-04-04T00:44:34;101691.78;;;2.48;58.49
72558;BME280;60583;50.094;8.748;2023-04-04T00:47:01;101670.53;;;2.27;57.90
72558;BME280;60583;50.094;8.748;2023-04-04T00:49:27;101668.63;;;2.29;57.66
72558;BME280;60583;50.094;8.748;2023-04-04T00:51:52;101687.31;;;2.37;57.83
72558;BME280;60583;50.094;8.748;2023-04-04T00:54:18;101680.31;;;2.49;57.38
72558;BME280;60583;50.094;8.748;2023-04-04T00:56:44;101615.91;;;1.96;57.60
72558;BME280;60583;50.094;8.748;2023-04-04T00:59:10;101624.00;;;1.93;58.09
72558;BME280;60583;50.094;8.748;2023-04-04T01:01:36;101661.06;;;2.25;57.73
72558;BME280;60583;50.094;8.748;2023-04-04T01:04:02;101618.19;;;2.01;57.06
72558;BME280;60583;50.094;8.748;2023-04-04T01:06:28;101685.19;;;2.42;57.11
72558;BME280;60583;50.094;8.748;2023-04-04T01:08:54;101648.50;;;2.17;57.39
72558;BME280;60583;50.094;8.748;2023-04-04T01:11:20;101671.81;;;2.22;57.22
72558;BME280;60583;50.094;8.748;2023-04-04T01:13:46;101661.13;;;2.12;58.22
72558;BME280;60583;50.094;8.748;2023-04-04T01:16:12;101667.38;;;2.11;56.92
72558;BME280;60583;50.094;8.748;2023-04-04T01:18:39;101676.75;;;2.26;57.68
72558;BME280;60583;50.094;8.748;2023-04-04T01:21:10;101668.19;;;2.12;58.09
72558;BME280;60583;50.094;8.748;2023-04-04T01:23:58;101680.34;;;2.25;57.53
72558;BME280;60583;50.094;8.748;2023-04-04T01:26:24;101665.16;;;2.29;57.55
72558;BME280;60583;50.094;8.748;2023-04-04T01:28:52;101639.88;;;1.91;57.35
72558;BME280;60583;50.094;8.748;2023-04-04T01:31:22;101655.66;;;2.15;56.94
72558;BME280;60583;50.094;8.748;2023-04-04T01:33:58;101656.09;;;2.09;56.65
72558;BME280;60583;50.094;8.748;2023-04-04T01:39:27;101674.13;;;2.26;56.95
72558;BME280;60583;50.094;8.748;2023-04-04T01:41:55;101669.81;;;2.25;56.86
72558;BME280;60583;50.094;8.748;2023-04-04T01:44:23;101670.50;;;2.16;56.67
72558;BME280;60583;50.094;8.748;2023-04-04T01:46:53;101658.47;;;2.01;57.31
72558;BME280;60583;50.094;8.748;2023-04-04T01:49:22;101652.53;;;1.86;57.37
72558;BME280;60583;50.094;8.748;2023-04-04T01:51:49;101638.16;;;1.79;57.86
72558;BME280;60583;50.094;8.748;2023-04-04T01:54:15;101660.34;;;1.99;58.27
72558;BME280;60583;50.094;8.748;2023-04-04T01:56:43;101667.66;;;1.96;58.95
72558;BME280;60583;50.094;8.748;2023-04-04T01:59:09;101600.00;;;1.74;58.16
72558;BME280;60583;50.094;8.748;2023-04-04T02:01:35;101656.56;;;2.03;58.61
72558;BME280;60583;50.094;8.748;2023-04-04T02:04:01;101657.50;;;2.02;58.31
72558;BME280;60583;50.094;8.748;2023-04-04T02:06:27;101672.88;;;2.19;57.92
72558;BME280;60583;50.094;8.748;2023-04-04T02:08:53;101629.34;;;1.91;57.25
72558;BME280;60583;50.094;8.748;2023-04-04T02:11:21;101669.81;;;2.02;57.68
72558;BME280;60583;50.094;8.748;2023-04-04T02:13:49;101645.75;;;1.95;58.36
72558;BME280;60583;50.094;8.748;2023-04-04T02:16:14;101670.81;;;2.12;57.18
72558;BME280;60583;50.094;8.748;2023-04-04T02:18:40;101653.88;;;1.92;56.78
72558;BME280;60583;50.094;8.748;2023-04-04T02:21:06;101668.41;;;1.85;57.58
72558;BME280;60583;50.094;8.748;2023-04-04T02:23:32;101659.19;;;1.79;57.97
72558;BME280;60583;50.094;8.748;2023-04-04T02:25:57;101648.06;;;1.76;57.50
72558;BME280;60583;50.094;8.748;2023-04-04T02:28:23;101660.91;;;1.91;57.93
72558;BME280;60583;50.094;8.748;2023-04-04T02:30:49;101666.09;;;1.93;56.91
72558;BME280;60583;50.094;8.748;2023-04-04T02:33:15;101662.72;;;1.91;58.07
72558;BME280;60583;50.094;8.748;2023-04-04T02:35:41;101658.91;;;1.95;57.53
72558;BME280;60583;50.094;8.748;2023-04-04T02:38:07;101657.50;;;1.78;58.31
72558;BME280;60583;50.094;8.748;2023-04-04T02:40:32;101659.91;;;1.81;57.70
72558;BME280;60583;50.094;8.748;2023-04-04T02:42:58;101662.94;;;1.88;57.38
72558;BME280;60583;50.094;8.748;2023-04-04T02:45:23;101647.59;;;1.82;57.71
72558;BME280;60583;50.094;8.748;2023-04-04T02:47:49;101648.44;;;1.82;57.88
72558;BME280;60583;50.094;8.748;2023-04-04T02:50:15;101648.50;;;1.70;57.56
72558;BME280;60583;50.094;8.748;2023-04-04T02:52:41;101637.25;;;1.68;57.52
72558;BME280;60583;50.094;8.748;2023-04-04T02:55:07;101649.72;;;1.77;56.82
72558;BME280;60583;50.094;8.748;2023-04-04T02:57:33;101634.78;;;1.77;58.04
72558;BME280;60583;50.094;8.748;2023-04-04T02:59:59;101647.22;;;1.75;57.55
72558;BME280;60583;50.094;8.748;2023-04-04T03:02:25;101635.84;;;1.75;56.90
72558;BME280;60583;50.094;8.748;2023-04-04T03:04:51;101631.38;;;1.64;57.13
72558;BME280;60583;50.094;8.748;2023-04-04T03:07:17;101620.06;;;1.51;56.67
72558;BME280;60583;50.094;8.748;2023-04-04T03:09:42;101632.34;;;1.63;56.63
72558;BME280;60583;50.094;8.748;2023-04-04T03:12:10;101576.31;;;1.26;56.86
72558;BME280;60583;50.094;8.748;2023-04-04T03:14:35;101630.00;;;1.59;57.20
72558;BME280;60583;50.094;8.748;2023-04-04T03:17:01;101636.97;;;1.60;58.01
72558;BME280;60583;50.094;8.748;2023-04-04T03:19:28;101608.22;;;1.46;57.38
72558;BME280;60583;50.094;8.748;2023-04-04T03:21:54;101624.38;;;1.52;57.00
72558;BME280;60583;50.094;8.748;2023-04-04T03:24:19;101597.25;;;1.52;56.97
72558;BME280;60583;50.094;8.748;2023-04-04T03:26:45;101623.09;;;1.58;57.42
72558;BME280;60583;50.094;8.748;2023-04-04T03:29:10;101634.22;;;1.61;57.23
72558;BME280;60583;50.094;8.748;2023-04-04T03:31:36;101619.06;;;1.65;57.28
72558;BME280;60583;50.094;8.748;2023-04-04T03:34:02;101612.28;;;1.50;57.47
72558;BME280;60583;50.094;8.748;2023-04-04T03:36:29;101587.13;;;1.35;58.15
72558;BME280;60583;50.094;8.748;2023-04-04T03:38:55;101612.97;;;1.41;57.69
72558;BME280;60583;50.094;8.748;2023-04-04T03:41:21;101606.94;;;1.39;58.14
72558;BME280;60583;50.094;8.748;2023-04-04T03:43:46;101573.34;;;1.31;58.52
72558;BME280;60583;50.094;8.748;2023-04-04T03:46:12;101596.88;;;1.45;58.58
72558;BME280;60583;50.094;8.748;2023-04-04T03:48:38;101607.31;;;1.58;58.69
72558;BME280;60583;50.094;8.748;2023-04-04T03:51:04;101618.28;;;1.52;59.35
72558;BME280;60583;50.094;8.748;2023-04-04T03:53:29;101603.78;;;1.46;58.90
72558;BME280;60583;50.094;8.748;2023-04-04T03:55:55;101591.19;;;1.39;59.33
72558;BME280;60583;50.094;8.748;2023-04-04T03:58:21;101593.09;;;1.37;59.06
72558;BME280;60583;50.094;8.748;2023-04-04T04:00:47;101573.38;;;1.18;59.16
72558;BME280;60583;50.094;8.748;2023-04-04T04:03:13;101607.47;;;1.44;58.48
72558;BME280;60583;50.094;8.748;2023-04-04T04:05:38;101577.50;;;1.22;58.97
72558;BME280;60583;50.094;8.748;2023-04-04T04:08:04;101613.72;;;1.30;58.86
72558;BME280;60583;50.094;8.748;2023-04-04T04:10:29;101568.94;;;0.95;59.26
72558;BME280;60583;50.094;8.748;2023-04-04T04:12:55;101596.22;;;1.18;59.51
72558;BME280;60583;50.094;8.748;2023-04-04T04:15:21;101576.53;;;1.23;58.78
72558;BME280;60583;50.094;8.748;2023-04-04T04:17:46;101611.41;;;1.38;58.79
72558;BME280;60583;50.094;8.748;2023-04-04T04:20:12;101595.28;;;1.43;58.88
72558;BME280;60583;50.094;8.748;2023-04-04T04:22:44;101603.13;;;1.55;58.76
72558;BME280;60583;50.094;8.748;2023-04-04T04:25:10;101601.06;;;1.48;58.88
72558;BME280;60583;50.094;8.748;2023-04-04T04:27:35;101560.75;;;1.23;59.24
72558;BME280;60583;50.094;8.748;2023-04-04T04:30:01;101599.66;;;1.55;59.55
72558;BME280;60583;50.094;8.748;2023-04-04T04:32:26;101570.94;;;1.41;59.16
72558;BME280;60583;50.094;8.748;2023-04-04T04:34:52;101609.44;;;1.53;58.78
72558;BME280;60583;50.094;8.748;2023-04-04T04:37:17;101554.06;;;1.19;58.58
72558;BME280;60583;50.094;8.748;2023-04-04T04:39:43;101609.63;;;1.62;58.81
72558;BME280;60583;50.094;8.748;2023-04-04T04:42:08;101578.81;;;1.41;58.69
72558;BME280;60583;50.094;8.748;2023-04-04T04:44:34;101615.75;;;1.50;58.73
72558;BME280;60583;50.094;8.748;2023-04-04T04:46:59;101572.53;;;1.31;59.41
72558;BME280;60583;50.094;8.748;2023-04-04T04:49:25;101588.47;;;1.40;59.96
72558;BME280;60583;50.094;8.748;2023-04-04T04:51:50;101600.75;;;1.40;59.81
72558;BME280;60583;50.094;8.748;2023-04-04T04:54:16;101588.91;;;1.34;59.31
72558;BME280;60583;50.094;8.748;2023-04-04T04:56:41;101618.47;;;1.49;59.57
72558;BME280;60583;50.094;8.748;2023-04-04T04:59:06;101619.03;;;1.41;59.84
72558;BME280;60583;50.094;8.748;2023-04-04T05:01:33;101584.91;;;1.28;59.31
72558;BME280;60583;50.094;8.748;2023-04-04T05:03:58;101616.38;;;1.54;58.89
72558;BME280;60583;50.094;8.748;2023-04-04T05:06:24;101612.06;;;1.53;59.57
72558;BME280;60583;50.094;8.748;2023-04-04T05:08:49;101585.97;;;1.26;59.34
72558;BME280;60583;50.094;8.748;2023-04-04T05:11:15;101604.25;;;1.40;60.05
72558;BME280;60583;50.094;8.748;2023-04-04T05:13:40;101618.78;;;1.57;59.50
72558;BME280;60583;50.094;8.748;2023-04-04T05:16:06;101630.00;;;1.59;59.92
72558;BME280;60583;50.094;8.748;2023-04-04T05:18:31;101611.41;;;1.38;60.67
72558;BME280;60583;50.094;8.748;2023-04-04T05:20:56;101599.41;;;1.34;59.43
72558;BME280;60583;50.094;8.748;2023-04-04T05:23:22;101623.69;;;1.61;59.76
72558;BME280;60583;50.094;8.748;2023-04-04T05:25:48;101610.56;;;1.61;59.74
72558;BME280;60583;50.094;8.748;2023-04-04T05:28:15;101626.06;;;1.77;60.09
72558;BME280;60583;50.094;8.748;2023-04-04T05:30:40;101585.59;;;1.56;59.74
72558;BME280;60583;50.094;8.748;2023-04-04T05:33:06;101623.66;;;1.74;59.81
72558;BME280;60583;50.094;8.748;2023-04-04T05:35:31;101615.72;;;1.63;60.69
72558;BME280;60583;50.094;8.748;2023-04-04T05:37:57;101618.19;;;1.77;60.35
72558;BME280;60583;50.094;8.748;2023-04-04T05:40:22;101595.41;;;1.65;60.58
72558;BME280;60583;50.094;8.748;2023-04-04T05:42:58;101618.69;;;1.82;60.19
72558;BME280;60583;50.094;8.748;2023-04-04T05:45:24;101598.00;;;1.77;59.79
72558;BME280;60583;50.094;8.748;2023-04-04T05:47:50;101630.66;;;1.86;61.13
72558;BME280;60583;50.094;8.748;2023-04-04T05:50:16;101601.97;;;1.83;59.75
72558;BME280;60583;50.094;8.748;2023-04-04T05:52:42;101605.19;;;2.10;60.01
72558;BME280;60583;50.094;8.748;2023-04-04T05:55:08;101630.78;;;2.19;59.19
72558;BME280;60583;50.094;8.748;2023-04-04T05:57:34;101623.16;;;2.27;59.79
72558;BME280;60583;50.094;8.748;2023-04-04T05:59:59;101598.41;;;2.19;58.14
72558;BME280;60583;50.094;8.748;2023-04-04T06:02:25;101627.41;;;2.52;57.97
72558;BME280;60583;50.094;8.748;2023-04-04T06:04:50;101588.88;;;2.40;57.42
72558;BME280;60583;50.094;8.748;2023-04-04T06:07:16;101571.06;;;2.43;57.07
72558;BME280;60583;50.094;8.748;2023-04-04T06:09:42;101640.31;;;3.01;57.47
72558;BME280;60583;50.094;8.748;2023-04-04T06:12:07;101576.81;;;2.59;56.83
72558;BME280;60583;50.094;8.748;2023-04-04T06:14:34;101626.53;;;2.97;55.91
72558;BME280;60583;50.094;8.748;2023-04-04T06:17:01;101611.56;;;3.09;55.63
72558;BME280;60583;50.094;8.748;2023-04-04T06:19:26;101640.41;;;3.33;55.85
72558;BME280;60583;50.094;8.748;2023-04-04T06:21:52;101639.94;;;3.39;55.11
72558;BME280;60583;50.094;8.748;2023-04-04T06:24:17;101625.47;;;3.11;55.02
72558;BME280;60583;50.094;8.748;2023-04-04T06:26:43;101598.03;;;3.13;55.03
72558;BME280;60583;50.094;8.748;2023-04-04T06:29:09;101628.06;;;3.44;55.22
72558;BME280;60583;50.094;8.748;2023-04-04T06:31:35;101637.41;;;3.59;54.09
72558;BME280;60583;50.094;8.748;2023-04-04T06:34:01;101625.00;;;3.71;53.85
72558;BME280;60583;50.094;8.748;2023-04-04T06:36:26;101555.72;;;3.26;53.52
72558;BME280;60583;50.094;8.748;2023-04-04T06:38:52;101637.00;;;3.75;53.63
72558;BME280;60583;50.094;8.748;2023-04-04T06:41:17;101602.25;;;3.70;52.24
72558;BME280;60583;50.094;8.748;2023-04-04T06:43:43;101620.63;;;3.49;53.95
72558;BME280;60583;50.094;8.748;2023-04-04T06:46:11;101636.31;;;3.62;53.46
72558;BME280;60583;50.094;8.748;2023-04-04T06:48:36;101637.25;;;3.72;54.17
72558;BME280;60583;50.094;8.748;2023-04-04T06:51:05;101608.47;;;3.80;52.88
72558;BME280;60583;50.094;8.748;2023-04-04T06:53:31;101590.06;;;3.90;52.46
72558;BME280;60583;50.094;8.748;2023-04-04T06:55:57;101614.50;;;4.23;52.25
72558;BME280;60583;50.094;8.748;2023-04-04T06:58:23;101651.34;;;4.66;51.01
72558;BME280;60583;50.094;8.748;2023-04-04T07:00:49;101616.44;;;4.83;51.67
72558;BME280;60583;50.094;8.748;2023-04-04T07:03:14;101645.22;;;5.16;50.48
72558;BME280;60583;50.094;8.748;2023-04-04T07:05:40;101634.44;;;4.99;49.61
72558;BME280;60583;50.094;8.748;2023-04-04T07:08:05;101625.25;;;4.93;48.92
72558;BME280;60583;50.094;8.748;2023-04-04T07:10:31;101590.53;;;5.07;48.10
72558;BME280;60583;50.094;8.748;2023-04-04T07:12:56;101631.09;;;5.27;49.84
72558;BME280;60583;50.094;8.748;2023-04-04T07:15:22;101653.09;;;5.37;48.35
72558;BME280;60583;50.094;8.748;2023-04-04T07:17:47;101647.75;;;5.58;48.49
72558;BME280;60583;50.094;8.748;2023-04-04T07:20:13;101618.09;;;5.64;46.51
72558;BME280;60583;50.094;8.748;2023-04-04T07:22:40;101644.38;;;6.05;46.20
72558;BME280;60583;50.094;8.748;2023-04-04T07:25:07;101658.72;;;6.12;45.80
72558;BME280;60583;50.094;8.748;2023-04-04T07:27:33;101637.13;;;6.07;44.56
72558;BME280;60583;50.094;8.748;2023-04-04T07:29:58;101650.50;;;6.34;45.61
72558;BME280;60583;50.094;8.748;2023-04-04T07:32:24;101658.88;;;6.20;45.32
72558;BME280;60583;50.094;8.748;2023-04-04T07:34:49;101635.16;;;6.09;45.72
72558;BME280;60583;50.094;8.748;2023-04-04T07:37:15;101636.00;;;6.19;45.13
72558;BME280;60583;50.094;8.748;2023-04-04T07:39:40;101652.72;;;6.29;46.21
72558;BME280;60583;50.094;8.748;2023-04-04T07:42:06;101645.06;;;6.07;44.10
72558;BME280;60583;50.094;8.748;2023-04-04T07:44:32;101639.94;;;6.15;44.03
72558;BME280;60583;50.094;8.748;2023-04-04T07:46:57;101645.22;;;6.15;44.21
72558;BME280;60583;50.094;8.748;2023-04-04T07:49:23;101654.00;;;6.16;44.69
72558;BME280;60583;50.094;8.748;2023-04-04T07:51:48;101640.59;;;6.27;43.23
72558;BME280;60583;50.094;8.748;2023-04-04T07:54:14;101654.69;;;6.37;42.73
72558;BME280;60583;50.094;8.748;2023-04-04T07:56:40;101631.84;;;6.26;42.44
72558;BME280;60583;50.094;8.748;2023-04-04T07:59:05;101633.06;;;6.32;43.62
72558;BME280;60583;50.094;8.748;2023-04-04T08:01:31;101632.97;;;6.33;43.23
72558;BME280;60583;50.094;8.748;2023-04-04T08:03:56;101616.47;;;6.59;43.21
72558;BME280;60583;50.094;8.748;2023-04-04T08:06:22;101611.69;;;6.81;42.13
72558;BME280;60583;50.094;8.748;2023-04-04T08:08:47;101653.25;;;7.27;41.15
72558;BME280;60583;50.094;8.748;2023-04-04T08:11:13;101643.44;;;7.37;40.55
72558;BME280;60583;50.094;8.748;2023-04-04T08:13:39;101634.84;;;6.79;41.12
72558;BME280;60583;50.094;8.748;2023-04-04T08:16:04;101600.63;;;6.86;42.40
72558;BME280;60583;50.094;8.748;2023-04-04T08:18:30;101634.34;;;7.40;41.33
72558;BME280;60583;50.094;8.748;2023-04-04T08:20:56;101634.56;;;7.46;41.70
72558;BME280;60583;50.094;8.748;2023-04-04T08:23:22;101605.41;;;7.64;41.58
72558;BME280;60583;50.094;8.748;2023-04-04T08:25:47;101626.69;;;7.99;40.87
72558;BME280;60583;50.094;8.748;2023-04-04T08:28:13;101632.09;;;8.07;39.67
72558;BME280;60583;50.094;8.748;2023-04-04T08:30:40;101621.94;;;8.03;38.75
72558;BME280;60583;50.094;8.748;2023-04-04T08:33:05;101592.75;;;7.76;39.44
72558;BME280;60583;50.094;8.748;2023-04-04T08:35:30;101626.63;;;8.09;40.14
72558;BME280;60583;50.094;8.748;2023-04-04T08:37:56;101619.78;;;7.89;40.27
72558;BME280;60583;50.094;8.748;2023-04-04T08:40:22;101618.38;;;8.29;39.35
72558;BME280;60583;50.094;8.748;2023-04-04T08:42:49;101611.91;;;8.32;37.00
72558;BME280;60583;50.094;8.748;2023-04-04T08:45:20;101620.41;;;8.18;35.98
72558;BME280;60583;50.094;8.748;2023-04-04T08:47:47;101576.41;;;7.98;36.27
72558;BME280;60583;50.094;8.748;2023-04-04T08:50:14;101598.91;;;8.72;36.58
72558;BME280;60583;50.094;8.748;2023-04-04T08:52:41;101615.47;;;8.66;38.83
72558;BME280;60583;50.094;8.748;2023-04-04T08:55:08;101615.84;;;8.71;35.84
72558;BME280;60583;50.094;8.748;2023-04-04T08:57:34;101582.84;;;8.56;36.20
72558;BME280;60583;50.094;8.748;2023-04-04T09:00:00;101591.41;;;8.93;35.39
72558;BME280;60583;50.094;8.748;2023-04-04T09:02:36;101598.97;;;8.80;36.13
72558;BME280;60583;50.094;8.748;2023-04-04T09:05:05;101611.84;;;8.67;36.48
72558;BME280;60583;50.094;8.748;2023-04-04T09:07:33;101614.75;;;8.56;32.91
72558;BME280;60583;50.094;8.748;2023-04-04T09:10:00;101628.66;;;8.93;32.43
72558;BME280;60583;50.094;8.748;2023-04-04T09:12:27;101615.31;;;8.85;32.10
72558;BME280;60583;50.094;8.748;2023-04-04T09:14:54;101618.22;;;9.34;33.41
72558;BME280;60583;50.094;8.748;2023-04-04T09:17:20;101612.75;;;9.10;31.29
72558;BME280;60583;50.094;8.748;2023-04-04T09:19:46;101610.41;;;9.07;31.42
72558;BME280;60583;50.094;8.748;2023-04-04T09:22:14;101583.97;;;9.05;32.58
72558;BME280;60583;50.094;8.748;2023-04-04T09:24:41;101611.75;;;9.44;31.97
72558;BME280;60583;50.094;8.748;2023-04-04T09:27:08;101614.66;;;9.59;31.99
72558;BME280;60583;50.094;8.748;2023-04-04T09:29:38;101607.31;;;9.61;31.30
72558;BME280;60583;50.094;8.748;2023-04-04T09:32:07;101598.97;;;9.48;32.16
72558;BME280;60583;50.094;8.748;2023-04-04T09:34:33;101574.69;;;9.67;33.36
72558;BME280;60583;50.094;8.748;2023-04-04T09:37:05;101593.75;;;10.45;33.38
72558;BME280;60583;50.094;8.748;2023-04-04T09:39:34;101591.19;;;10.92;32.78
72558;BME280;60583;50.094;8.748;2023-04-04T09:42:03;101574.63;;;11.12;32.50
72558;BME280;60583;50.094;8.748;2023-04-04T09:44:29;101574.97;;;11.09;29.88
72558;BME280;60583;50.094;8.748;2023-04-04T09:47:33;101600.69;;;11.02;30.22
72558;BME280;60583;50.094;8.748;2023-04-04T09:50:06;101595.59;;;11.62;30.30
72558;BME280;60583;50.094;8.748;2023-04-04T09:52:32;101581.63;;;11.52;29.64
72558;BME280;60583;50.094;8.748;2023-04-04T09:55:02;101602.47;;;11.87;30.09
72558;BME280;60583;50.094;8.748;2023-04-04T09:57:29;101599.75;;;11.65;27.75
72558;BME280;60583;50.094;8.748;2023-04-04T09:59:57;101585.25;;;11.90;28.55
72558;BME280;60583;50.094;8.748;2023-04-04T10:02:24;101596.28;;;12.69;28.52
72558;BME280;60583;50.094;8.748;2023-04-04T10:04:52;101588.38;;;13.20;27.19
72558;BME280;60583;50.094;8.748;2023-04-04T10:07:17;101582.38;;;13.68;26.20
72558;BME280;60583;50.094;8.748;2023-04-04T10:09:45;101588.69;;;14.39;24.92
72558;BME280;60583;50.094;8.748;2023-04-04T10:12:11;101575.13;;;15.09;23.73
72558;BME280;60583;50.094;8.748;2023-04-04T10:14:37;101572.16;;;16.05;23.21
72558;BME280;60583;50.094;8.748;2023-04-04T10:17:09;101575.53;;;16.66;23.86
72558;BME280;60583;50.094;8.748;2023-04-04T10:19:38;101585.13;;;17.26;22.67
72558;BME280;60583;50.094;8.748;2023-04-04T10:22:07;101576.72;;;16.05;24.05
72558;BME280;60583;50.094;8.748;2023-04-04T10:24:34;101561.59;;;16.49;21.66
72558;BME280;60583;50.094;8.748;2023-04-04T10:27:00;101550.25;;;17.24;23.69
72558;BME280;60583;50.094;8.748;2023-04-04T10:29:25;101554.38;;;18.83;22.39
72558;BME280;60583;50.094;8.748;2023-04-04T10:32:01;101575.34;;;19.90;20.62
72558;BME280;60583;50.094;8.748;2023-04-04T10:34:35;101569.44;;;17.03;21.82
72558;BME280;60583;50.094;8.748;2023-04-04T10:37:14;101574.44;;;16.93;21.83
72558;BME280;60583;50.094;8.748;2023-04-04T10:39:52;101521.56;;;18.37;19.65
72558;BME280;60583;50.094;8.748;2023-04-04T10:42:19;101544.38;;;19.86;19.48
72558;BME280;60583;50.094;8.748;2023-04-04T10:44:47;101570.25;;;21.05;18.61
72558;BME280;60583;50.094;8.748;2023-04-04T10:47:18;101567.03;;;21.71;17.90
72558;BME280;60583;50.094;8.748;2023-04-04T10:49:47;101566.94;;;21.66;18.46
72558;BME280;60583;50.094;8.748;2023-04-04T10:52:15;101540.38;;;21.96;18.38
72558;BME280;60583;50.094;8.748;2023-04-04T10:54:42;101539.88;;;21.14;17.22
72558;BME280;60583;50.094;8.748;2023-04-04T10:57:09;101565.09;;;20.91;17.16
72558;BME280;60583;50.094;8.748;2023-04-04T11:00:04;101548.00;;;19.92;18.81
72558;BME280;60583;50.094;8.748;2023-04-04T11:02:54;101552.63;;;19.91;19.01
72558;BME280;60583;50.094;8.748;2023-04-04T11:05:24;101564.84;;;21.05;18.49
72558;BME280;60583;50.094;8.748;2023-04-04T11:07:55;101533.28;;;21.95;16.95
72558;BME280;60583;50.094;8.748;2023-04-04T11:10:25;101519.47;;;22.30;16.93
72558;BME280;60583;50.094;8.748;2023-04-04T11:12:53;101528.38;;;23.40;16.12
72558;BME280;60583;50.094;8.748;2023-04-04T11:15:20;101506.75;;;23.55;17.09
72558;BME280;60583;50.094;8.748;2023-04-04T11:17:50;101539.22;;;24.47;16.27
72558;BME280;60583;50.094;8.748;2023-04-04T11:20:20;101515.59;;;21.64;17.26
72558;BME280;60583;50.094;8.748;2023-04-04T11:22:56;101499.63;;;22.29;16.36
72558;BME280;60583;50.094;8.748;2023-04-04T11:25:36;101503.25;;;21.56;17.76
72558;BME280;60583;50.094;8.748;2023-04-04T11:28:06;101508.34;;;21.98;17.68
72558;BME280;60583;50.094;8.748;2023-04-04T11:30:40;101510.91;;;22.21;17.51
72558;BME280;60583;50.094;8.748;2023-04-04T11:33:12;101496.63;;;22.47;16.27
72558;BME280;60583;50.094;8.748;2023-04-04T11:35:39;101498.41;;;23.67;16.03
72558;BME280;60583;50.094;8.748;2023-04-04T11:38:12;101490.41;;;21.97;16.64
72558;BME280;60583;50.094;8.748;2023-04-04T11:40:39;101488.84;;;21.73;16.67
72558;BME280;60583;50.094;8.748;2023-04-04T11:43:11;101487.47;;;23.13;16.24
72558;BME280;60583;50.094;8.748;2023-04-04T11:45:42;101483.31;;;23.32;16.63
72558;BME280;60583;50.094;8.748;2023-04-04T11:48:09;101499.28;;;23.24;17.09
72558;BME280;60583;50.094;8.748;2023-04-04T11:50:37;101476.97;;;20.54;17.85
72558;BME280;60583;50.094;8.748;2023-04-04T11:53:08;101469.31;;;22.75;17.74
72558;BME280;60583;50.094;8.748;2023-04-04T11:55:41;101470.97;;;24.37;16.42
72558;BME280;60583;50.094;8.748;2023-04-04T11:58:11;101469.13;;;23.52;16.43
72558;BME280;60583;50.094;8.748;2023-04-04T12:00:37;101467.34;;;23.36;15.63
72558;BME280;60583;50.094;8.748;2023-04-04T12:03:04;101463.84;;;24.36;15.99
72558;BME280;60583;50.094;8.748;2023-04-04T12:05:31;101476.25;;;22.66;16.04
72558;BME280;60583;50.094;8.748;2023-04-04T12:07:58;101466.50;;;22.32;17.30
72558;BME280;60583;50.094;8.748;2023-04-04T12:10:28;101460.84;;;22.55;16.97
72558;BME280;60583;50.094;8.748;2023-04-04T12:12:54;101460.38;;;23.02;16.83
72558;BME280;60583;50.094;8.748;2023-04-04T12:15:21;101457.88;;;23.70;16.83
72558;BME280;60583;50.094;8.748;2023-04-04T12:17:47;101461.09;;;23.67;16.33
72558;BME280;60583;50.094;8.748;2023-04-04T12:20:16;101444.06;;;23.50;16.95
72558;BME280;60583;50.094;8.748;2023-04-04T12:22:42;101462.28;;;22.79;16.93
72558;BME280;60583;50.094;8.748;2023-04-04T12:25:08;101452.00;;;23.30;17.80
72558;BME280;60583;50.094;8.748;2023-04-04T12:27:34;101453.72;;;23.63;16.09
72558;BME280;60583;50.094;8.748;2023-04-04T12:30:02;101448.94;;;23.48;16.07
72558;BME280;60583;50.094;8.748;2023-04-04T12:32:29;101447.00;;;23.43;16.84
72558;BME280;60583;50.094;8.748;2023-04-04T12:34:59;101456.47;;;22.33;16.61
72558;BME280;60583;50.094;8.748;2023-04-04T12:37:27;101434.09;;;22.47;16.79
72558;BME280;60583;50.094;8.748;2023-04-04T12:39:55;101412.78;;;22.39;17.69
72558;BME280;60583;50.094;8.748;2023-04-04T12:42:24;101421.69;;;21.68;17.50
72558;BME280;60583;50.094;8.748;2023-04-04T12:44:51;101438.84;;;22.18;17.41
72558;BME280;60583;50.094;8.748;2023-04-04T12:47:17;101435.78;;;21.20;18.30
72558;BME280;60583;50.094;8.748;2023-04-04T12:49:45;101432.66;;;20.02;18.98
72558;BME280;60583;50.094;8.748;2023-04-04T12:52:20;101417.69;;;18.15;21.09
72558;BME280;60583;50.094;8.748;2023-04-04T12:54:47;101439.09;;;17.92;21.55
72558;BME280;60583;50.094;8.748;2023-04-04T12:57:18;101407.34;;;19.02;20.92
72558;BME280;60583;50.094;8.748;2023-04-04T12:59:45;101412.41;;;17.52;23.11